createdAt,value
2023-06-16T00:00:21.393Z,72.97
2023-06-16T00:02:25.542Z,72.37
2023-06-16T00:04:29.092Z,71.97
2023-06-16T00:06:32.674Z,71.84
2023-06-16T00:08:39.073Z,70.75
2023-06-16T00:10:41.981Z,70.70
2023-06-16T00:12:45.251Z,71.25
2023-06-16T00:14:47.590Z,70.52
2023-06-16T00:16:51.000Z,70.62
2023-06-16T00:18:59.663Z,70.10
2023-06-16T00:21:03.694Z,70.05
2023-06-16T00:23:08.898Z,70.11
2023-06-16T00:25:11.451Z,70.02
2023-06-16T00:27:14.570Z,72.09
2023-06-16T00:29:17.798Z,72.81
2023-06-16T00:31:20.548Z,73.03
2023-06-16T00:33:26.527Z,72.14
2023-06-16T00:35:29.632Z,72.48
2023-06-16T00:37:33.229Z,71.76
2023-06-16T00:39:36.486Z,71.04
2023-06-16T00:41:40.886Z,71.53
2023-06-16T00:43:46.799Z,73.42
2023-06-16T00:45:52.781Z,74.24
2023-06-16T00:47:56.002Z,73.70
2023-06-16T00:50:09.367Z,72.75
2023-06-16T00:52:16.028Z,72.26
2023-06-16T00:54:18.988Z,72.13
2023-06-16T00:56:23.587Z,72.24
2023-06-16T00:58:27.711Z,72.14
2023-06-16T01:00:30.389Z,73.70
2023-06-16T01:02:34.636Z,74.90
2023-06-16T01:04:37.645Z,74.99
2023-06-16T01:06:43.735Z,74.41
2023-06-16T01:09:02.122Z,73.20
2023-06-16T01:11:13.059Z,73.37
2023-06-16T01:13:54.898Z,72.63
2023-06-16T01:16:03.243Z,72.56
2023-06-16T01:18:08.686Z,71.69
2023-06-16T01:20:26.512Z,72.12
2023-06-16T01:22:59.397Z,71.35
2023-06-16T01:25:05.250Z,71.36
2023-06-16T01:27:10.990Z,71.23
2023-06-16T01:29:15.754Z,70.93
2023-06-16T01:31:21.380Z,71.26
2023-06-16T01:33:27.470Z,70.90
2023-06-16T01:35:31.810Z,71.31
2023-06-16T01:37:36.018Z,71.92
2023-06-16T01:39:42.102Z,71.76
2023-06-16T01:41:46.870Z,73.58
2023-06-16T01:43:50.499Z,73.98
2023-06-16T01:45:53.894Z,74.21
2023-06-16T01:47:57.240Z,74.35
2023-06-16T01:50:00.139Z,75.03
2023-06-16T01:52:03.183Z,75.80
2023-06-16T01:54:06.316Z,75.52
2023-06-16T01:56:13.542Z,75.88
2023-06-16T01:58:18.233Z,76.17
2023-06-16T02:00:27.058Z,75.22
2023-06-16T02:02:32.962Z,74.39
2023-06-16T02:04:38.513Z,74.60
2023-06-16T02:07:05.747Z,73.98
2023-06-16T02:09:11.175Z,73.70
2023-06-16T02:11:16.674Z,73.75
2023-06-16T02:13:20.050Z,73.92
2023-06-16T02:15:23.684Z,73.23
2023-06-16T02:17:30.534Z,73.19
2023-06-16T02:19:34.312Z,73.30
2023-06-16T02:21:39.420Z,72.63
2023-06-16T02:23:41.912Z,72.48
2023-06-16T02:25:44.666Z,72.11
2023-06-16T02:27:48.022Z,73.00
2023-06-16T02:29:51.220Z,74.23
2023-06-16T02:31:53.813Z,74.25
2023-06-16T02:33:57.575Z,73.56
2023-06-16T02:36:01.127Z,73.62
2023-06-16T02:38:05.008Z,72.63
2023-06-16T02:40:10.103Z,72.97
2023-06-16T02:42:12.696Z,72.74
2023-06-16T02:44:17.126Z,72.15
2023-06-16T02:46:19.605Z,72.84
2023-06-16T02:48:22.504Z,72.09
2023-06-16T02:50:30.051Z,72.60
2023-06-16T02:52:37.285Z,71.48
2023-06-16T02:54:42.413Z,72.05
2023-06-16T02:56:48.260Z,72.63
2023-06-16T02:58:52.558Z,72.13
2023-06-16T03:00:55.992Z,72.30
2023-06-16T03:03:38.263Z,72.71
2023-06-16T03:06:04.275Z,72.15
2023-06-16T03:08:09.900Z,71.61
2023-06-16T03:10:13.562Z,72.01
2023-06-16T03:12:46.388Z,71.56
2023-06-16T03:14:49.287Z,71.96
2023-06-16T03:16:55.498Z,71.92
2023-06-16T03:19:01.218Z,72.38
2023-06-16T03:21:04.738Z,72.39
2023-06-16T03:23:14.968Z,72.23
2023-06-16T03:25:17.942Z,72.03
2023-06-16T03:27:23.556Z,72.63
2023-06-16T03:29:38.750Z,72.17
2023-06-16T03:31:42.064Z,72.25
2023-06-16T03:33:48.326Z,71.94
2023-06-16T03:35:51.945Z,72.38
2023-06-16T03:38:09.887Z,72.49
2023-06-16T03:40:19.407Z,72.73
2023-06-16T03:42:23.361Z,72.76
2023-06-16T03:44:28.057Z,72.62
2023-06-16T03:46:33.355Z,72.99
2023-06-16T03:48:38.678Z,73.44
2023-06-16T03:50:42.005Z,73.08
2023-06-16T03:52:44.836Z,73.46
2023-06-16T03:54:51.478Z,73.47
2023-06-16T03:56:54.658Z,73.32
2023-06-16T03:59:00.252Z,72.94
2023-06-16T04:01:04.343Z,73.81
2023-06-16T04:03:09.111Z,74.85
2023-06-16T04:05:13.505Z,75.28
2023-06-16T04:07:16.922Z,75.74
2023-06-16T04:09:20.332Z,76.26
2023-06-16T04:11:22.760Z,76.15
2023-06-16T04:13:27.407Z,75.69
2023-06-16T04:15:31.030Z,75.86
2023-06-16T04:17:34.211Z,76.03
2023-06-16T04:19:36.846Z,76.85
2023-06-16T04:21:39.440Z,76.64
2023-06-16T04:23:42.658Z,77.19
2023-06-16T04:25:47.270Z,76.89
2023-06-16T04:27:53.881Z,76.97
2023-06-16T04:29:59.050Z,76.21
2023-06-16T04:32:02.434Z,75.85
2023-06-16T04:34:06.283Z,75.52
2023-06-16T04:36:12.821Z,75.39
2023-06-16T04:38:15.587Z,75.22
2023-06-16T04:40:18.436Z,74.68
2023-06-16T04:42:21.987Z,74.78
2023-06-16T04:44:25.829Z,74.87
2023-06-16T04:46:29.452Z,74.58
2023-06-16T04:48:32.972Z,74.40
2023-06-16T04:50:35.965Z,74.50
2023-06-16T04:52:39.426Z,74.19
2023-06-16T04:54:42.560Z,72.94
2023-06-16T04:56:47.439Z,72.03
2023-06-16T04:58:50.753Z,71.82
2023-06-16T05:00:54.399Z,71.44
2023-06-16T05:02:58.251Z,71.23
2023-06-16T05:05:05.037Z,70.36
2023-06-16T05:07:08.731Z,70.59
2023-06-16T05:09:11.907Z,70.24
2023-06-16T05:11:14.337Z,70.90
2023-06-16T05:13:17.523Z,69.63
2023-06-16T05:15:20.098Z,69.38
2023-06-16T05:17:23.144Z,69.34
2023-06-16T05:19:26.282Z,67.86
2023-06-16T05:21:33.639Z,67.60
2023-06-16T05:23:37.891Z,67.40
2023-06-16T05:25:40.406Z,67.35
2023-06-16T05:27:44.889Z,65.46
2023-06-16T05:29:47.630Z,65.82
2023-06-16T05:31:52.117Z,64.64
2023-06-16T05:33:57.273Z,62.80
2023-06-16T05:36:00.422Z,62.69
2023-06-16T05:38:03.274Z,63.51
2023-06-16T05:40:07.027Z,63.87
2023-06-16T05:42:15.968Z,63.88
2023-06-16T05:44:19.437Z,63.76
2023-06-16T05:46:25.029Z,63.56
2023-06-16T05:48:29.044Z,63.58
2023-06-16T05:50:32.416Z,63.93
2023-06-16T05:52:36.428Z,63.41
2023-06-16T05:54:40.076Z,61.62
2023-06-16T05:56:45.984Z,61.32
2023-06-16T05:58:48.533Z,61.29
2023-06-16T06:00:51.428Z,60.62
2023-06-16T06:02:56.978Z,58.44
2023-06-16T06:05:06.330Z,58.85
2023-06-16T06:07:09.302Z,57.12
2023-06-16T06:09:14.091Z,56.40
2023-06-16T06:11:17.995Z,58.06
2023-06-16T06:13:20.489Z,58.35
2023-06-16T06:15:25.133Z,58.33
2023-06-16T06:17:35.052Z,57.51
2023-06-16T06:19:39.458Z,58.10
2023-06-16T06:21:42.395Z,58.26
2023-06-16T06:23:45.055Z,56.37
2023-06-16T06:25:49.262Z,56.47
2023-06-16T06:27:56.427Z,56.83
2023-06-16T06:29:59.233Z,57.86
2023-06-16T06:32:03.087Z,56.19
2023-06-16T06:34:06.057Z,54.76
2023-06-16T06:36:08.921Z,54.52
2023-06-16T06:38:12.595Z,55.00
2023-06-16T06:40:15.834Z,53.96
2023-06-16T06:42:19.139Z,55.00
2023-06-16T06:44:27.229Z,54.48
2023-06-16T06:46:30.591Z,54.21
2023-06-16T06:48:33.737Z,54.54
2023-06-16T06:50:42.542Z,54.16
2023-06-16T06:52:45.854Z,54.72
2023-06-16T06:54:56.319Z,54.82
2023-06-16T06:57:02.316Z,54.12
2023-06-16T06:59:05.051Z,53.53
2023-06-16T07:01:07.783Z,52.73
2023-06-16T07:03:11.030Z,51.93
2023-06-16T07:05:13.909Z,51.98
2023-06-16T07:07:16.516Z,50.83
2023-06-16T07:09:30.002Z,52.08
2023-06-16T07:11:32.816Z,51.67
2023-06-16T07:13:36.233Z,52.17
2023-06-16T07:15:39.481Z,51.36
2023-06-16T07:17:42.883Z,51.68
2023-06-16T07:19:46.316Z,51.92
2023-06-16T07:21:48.815Z,50.56
2023-06-16T07:23:51.782Z,50.42
2023-06-16T07:25:56.178Z,49.13
2023-06-16T07:27:59.027Z,49.80
2023-06-16T07:30:02.377Z,50.48
2023-06-16T07:32:07.978Z,50.36
2023-06-16T07:34:10.992Z,48.04
2023-06-16T07:36:14.268Z,48.83
2023-06-16T07:38:17.175Z,48.08
2023-06-16T07:40:20.552Z,46.05
2023-06-16T07:42:23.554Z,46.66
2023-06-16T07:44:26.041Z,47.04
2023-06-16T07:46:28.989Z,45.82
2023-06-16T07:48:32.585Z,45.36
2023-06-16T07:50:36.095Z,46.27
2023-06-16T07:52:39.823Z,46.88
2023-06-16T07:54:42.635Z,47.22
2023-06-16T07:56:45.570Z,43.69
2023-06-16T07:58:48.513Z,43.08
2023-06-16T08:00:54.418Z,43.70
2023-06-16T08:02:57.649Z,44.05
2023-06-16T08:05:01.140Z,44.38
2023-06-16T08:07:04.349Z,43.84
2023-06-16T08:09:09.331Z,41.04
2023-06-16T08:11:12.307Z,43.52
2023-06-16T08:13:14.959Z,42.18
2023-06-16T08:15:18.113Z,42.29
2023-06-16T08:17:21.337Z,43.10
2023-06-16T08:19:24.252Z,42.53
2023-06-16T08:21:27.742Z,41.41
2023-06-16T08:23:30.427Z,40.58
2023-06-16T08:25:33.838Z,41.76
2023-06-16T08:27:36.527Z,41.80
2023-06-16T08:29:41.760Z,41.44
2023-06-16T08:31:44.581Z,39.84
2023-06-16T08:33:47.308Z,39.41
2023-06-16T08:35:49.828Z,41.42
2023-06-16T08:37:52.440Z,41.56
2023-06-16T08:39:55.844Z,42.30
2023-06-16T08:42:01.871Z,41.88
2023-06-16T08:44:09.388Z,41.77
2023-06-16T08:46:12.875Z,41.96
2023-06-16T08:48:18.245Z,40.78
2023-06-16T08:50:24.526Z,41.20
2023-06-16T08:52:43.423Z,40.48
2023-06-16T08:54:51.615Z,36.40
2023-06-16T08:56:54.854Z,38.70
2023-06-16T08:58:59.051Z,39.86
2023-06-16T09:01:03.995Z,39.08
2023-06-16T09:03:07.814Z,38.15
2023-06-16T09:05:11.639Z,40.04
2023-06-16T09:07:18.492Z,39.05
2023-06-16T09:09:21.313Z,38.23
2023-06-16T09:11:28.382Z,39.38
2023-06-16T09:13:31.104Z,38.57
2023-06-16T09:15:37.224Z,38.40
2023-06-16T09:17:41.366Z,39.76
2023-06-16T09:19:49.411Z,39.13
2023-06-16T09:21:56.741Z,39.89
2023-06-16T09:24:00.645Z,37.18
2023-06-16T09:26:15.066Z,36.20
2023-06-16T09:28:18.893Z,37.13
2023-06-16T09:30:23.308Z,38.30
2023-06-16T09:32:26.633Z,38.19
2023-06-16T09:34:33.971Z,37.53
2023-06-16T09:36:40.897Z,37.13
2023-06-16T09:38:45.128Z,37.55
2023-06-16T09:40:47.950Z,35.64
2023-06-16T09:42:52.771Z,37.60
2023-06-16T09:44:55.427Z,36.45
2023-06-16T09:47:01.825Z,34.88
2023-06-16T09:49:04.657Z,35.07
2023-06-16T09:51:10.588Z,35.03
2023-06-16T09:53:17.653Z,33.92
2023-06-16T09:55:21.688Z,35.08
2023-06-16T09:57:25.184Z,36.42
2023-06-16T09:59:28.989Z,36.86
2023-06-16T10:01:32.440Z,36.15
2023-06-16T10:03:39.890Z,35.48
2023-06-16T10:05:50.430Z,33.64
2023-06-16T10:07:58.564Z,32.70
2023-06-16T10:10:04.458Z,34.01
2023-06-16T10:12:12.144Z,34.87
2023-06-16T10:14:16.434Z,35.54
2023-06-16T10:16:25.176Z,35.87
2023-06-16T10:18:28.859Z,36.46
2023-06-16T10:20:35.714Z,35.62
2023-06-16T10:22:39.444Z,35.44
2023-06-16T10:24:42.811Z,35.90
2023-06-16T10:26:46.663Z,36.27
2023-06-16T10:28:50.152Z,36.21
2023-06-16T10:30:54.635Z,35.17
2023-06-16T10:33:00.218Z,34.28
2023-06-16T10:35:03.690Z,34.71
2023-06-16T10:37:07.112Z,34.33
2023-06-16T10:39:15.662Z,34.94
2023-06-16T10:41:21.026Z,35.42
2023-06-16T10:43:27.588Z,35.13
2023-06-16T10:45:37.711Z,35.89
2023-06-16T10:47:57.411Z,36.34
2023-06-16T10:50:04.449Z,37.49
2023-06-16T10:52:07.490Z,36.14
2023-06-16T10:54:10.657Z,36.70
2023-06-16T10:56:15.330Z,37.30
2023-06-16T10:58:17.804Z,37.80
2023-06-16T11:00:20.687Z,37.83
2023-06-16T11:02:36.044Z,37.66
2023-06-16T11:04:38.958Z,36.24
2023-06-16T11:07:34.177Z,34.47
2023-06-16T11:09:38.466Z,37.61
2023-06-16T11:11:41.724Z,38.67
2023-06-16T11:13:45.009Z,38.25
2023-06-16T11:15:47.822Z,38.09
2023-06-16T11:17:51.211Z,38.19
2023-06-16T11:19:58.177Z,37.75
2023-06-16T11:22:01.961Z,36.82
2023-06-16T11:24:13.913Z,38.24
2023-06-16T11:26:19.828Z,38.75
2023-06-16T11:28:23.578Z,36.03
2023-06-16T11:30:26.582Z,34.34
2023-06-16T11:32:36.366Z,31.90
2023-06-16T11:34:40.531Z,35.78
2023-06-16T11:36:51.160Z,36.43
2023-06-16T11:38:59.400Z,36.80
2023-06-16T11:41:11.291Z,35.28
2023-06-16T11:43:14.630Z,36.60
2023-06-16T11:45:17.706Z,36.38
2023-06-16T11:47:21.581Z,36.48
2023-06-16T11:49:25.492Z,37.83
2023-06-16T11:51:30.843Z,38.68
2023-06-16T11:53:34.179Z,38.10
2023-06-16T11:55:36.592Z,37.00
2023-06-16T11:57:39.887Z,36.92
2023-06-16T11:59:44.043Z,36.41
2023-06-16T12:01:47.314Z,36.80
2023-06-16T12:05:58.328Z,36.76
2023-06-16T12:08:01.310Z,36.20
2023-06-16T12:10:05.915Z,35.77
2023-06-16T12:12:11.868Z,36.23
2023-06-16T12:14:22.519Z,34.92
2023-06-16T12:16:25.223Z,35.86
2023-06-16T12:18:28.092Z,37.49
2023-06-16T12:20:30.761Z,37.35
2023-06-16T12:22:40.175Z,37.07
2023-06-16T12:24:42.616Z,36.24
2023-06-16T12:26:45.752Z,36.21
2023-06-16T12:28:48.422Z,34.94
2023-06-16T12:30:51.543Z,33.50
2023-06-16T12:34:56.842Z,34.13
2023-06-16T12:37:05.776Z,33.13
2023-06-16T12:39:18.453Z,34.18
2023-06-16T12:41:21.990Z,34.64
2023-06-16T12:43:26.865Z,34.89
2023-06-16T12:45:30.283Z,34.04
2023-06-16T12:47:35.262Z,32.67
2023-06-16T12:49:38.340Z,33.78
2023-06-16T12:51:41.044Z,32.62
2023-06-16T12:53:45.398Z,32.44
2023-06-16T12:55:48.166Z,31.76
2023-06-16T12:57:51.190Z,32.11
2023-06-16T12:59:54.793Z,33.03
2023-06-16T13:01:57.982Z,34.44
2023-06-16T13:04:00.526Z,34.56
2023-06-16T13:06:04.015Z,31.63
2023-06-16T13:08:06.426Z,31.39
2023-06-16T13:10:09.272Z,29.82
2023-06-16T13:12:12.808Z,32.13
2023-06-16T13:14:15.822Z,33.62
2023-06-16T13:16:18.927Z,34.08
2023-06-16T13:18:22.035Z,32.59
2023-06-16T13:20:25.484Z,31.54
2023-06-16T13:22:30.083Z,31.24
2023-06-16T13:24:32.772Z,31.43
2023-06-16T13:26:36.119Z,33.31
2023-06-16T13:28:40.411Z,33.22
2023-06-16T13:30:43.153Z,32.86
2023-06-16T13:32:46.536Z,31.05
2023-06-16T13:34:49.163Z,31.22
2023-06-16T13:36:52.053Z,29.63
2023-06-16T13:38:55.193Z,30.44
2023-06-16T13:40:58.084Z,32.13
2023-06-16T13:43:03.142Z,32.79
2023-06-16T13:45:06.790Z,33.17
2023-06-16T13:47:09.491Z,33.75
2023-06-16T13:49:13.313Z,31.73
2023-06-16T13:51:16.669Z,31.94
2023-06-16T13:53:19.641Z,31.88
2023-06-16T13:55:25.181Z,31.78
2023-06-16T13:57:27.981Z,31.52
2023-06-16T13:59:30.488Z,31.88
2023-06-16T14:01:33.129Z,32.50
2023-06-16T14:03:36.298Z,32.56
2023-06-16T14:05:42.806Z,32.48
2023-06-16T14:07:45.304Z,33.25
2023-06-16T14:09:47.826Z,33.57
2023-06-16T14:11:50.264Z,33.66
2023-06-16T14:13:53.292Z,34.22
2023-06-16T14:15:55.835Z,33.84
2023-06-16T14:18:01.707Z,33.46
2023-06-16T14:20:04.934Z,32.84
2023-06-16T14:22:07.590Z,34.45
2023-06-16T14:24:10.131Z,35.84
2023-06-16T14:26:12.523Z,36.19
2023-06-16T14:28:15.864Z,36.38
2023-06-16T14:30:18.632Z,36.35
2023-06-16T14:32:21.687Z,36.78
2023-06-16T14:34:28.461Z,37.40
2023-06-16T14:36:31.360Z,37.84
2023-06-16T14:38:34.394Z,37.48
2023-06-16T14:40:36.998Z,38.33
2023-06-16T14:42:39.529Z,39.57
2023-06-16T14:44:42.090Z,39.99
2023-06-16T14:46:45.066Z,39.93
2023-06-16T14:48:47.620Z,40.43
2023-06-16T14:50:50.884Z,40.65
2023-06-16T14:52:54.318Z,41.02
2023-06-16T14:54:57.061Z,39.79
2023-06-16T14:57:01.600Z,39.01
2023-06-16T14:59:05.244Z,39.47
2023-06-16T15:01:09.045Z,38.31
2023-06-16T15:03:12.698Z,37.52
2023-06-16T15:05:15.979Z,36.69
2023-06-16T15:07:19.399Z,37.47
2023-06-16T15:09:22.577Z,37.25
2023-06-16T15:11:25.402Z,37.28
2023-06-16T15:13:28.427Z,37.22
2023-06-16T15:15:31.011Z,36.28
2023-06-16T15:17:33.589Z,36.67
2023-06-16T15:19:36.622Z,37.41
2023-06-16T15:21:39.346Z,36.98
2023-06-16T15:23:42.058Z,37.39
2023-06-16T15:25:44.958Z,37.54
2023-06-16T15:27:50.022Z,38.52
2023-06-16T15:29:57.149Z,38.60
2023-06-16T15:32:00.346Z,38.78
2023-06-16T15:34:03.377Z,38.78
2023-06-16T15:36:08.990Z,39.97
2023-06-16T15:38:11.537Z,39.65
2023-06-16T15:40:14.629Z,39.25
2023-06-16T15:42:17.661Z,38.61
2023-06-16T15:44:20.544Z,38.96
2023-06-16T15:46:23.342Z,38.44
2023-06-16T15:48:26.735Z,38.40
2023-06-16T15:50:29.673Z,38.09
2023-06-16T15:52:32.149Z,37.78
2023-06-16T15:54:34.857Z,38.08
2023-06-16T15:56:37.811Z,37.40
2023-06-16T15:58:40.701Z,37.06
2023-06-16T16:00:43.497Z,37.94
2023-06-16T16:02:46.856Z,38.14
2023-06-16T16:04:50.112Z,38.42
2023-06-16T16:06:52.923Z,37.84
2023-06-16T16:08:55.403Z,38.23
2023-06-16T16:10:58.373Z,38.91
2023-06-16T16:13:01.305Z,38.54
2023-06-16T16:15:05.772Z,38.31
2023-06-16T16:17:10.980Z,38.54
2023-06-16T16:19:13.909Z,37.93
2023-06-16T16:21:17.251Z,37.59
2023-06-16T16:23:20.385Z,37.91
2023-06-16T16:25:23.468Z,38.02
2023-06-16T16:27:29.334Z,37.20
2023-06-16T16:29:32.953Z,37.13
2023-06-16T16:31:35.951Z,37.39
2023-06-16T16:33:38.903Z,37.83
2023-06-16T16:35:42.103Z,38.38
2023-06-16T16:37:45.453Z,38.53
2023-06-16T16:39:48.294Z,38.34
2023-06-16T16:41:54.322Z,38.60
2023-06-16T16:43:57.067Z,38.82
2023-06-16T16:46:00.435Z,39.19
2023-06-16T16:48:03.058Z,39.20
2023-06-16T16:50:07.390Z,39.56
2023-06-16T16:52:10.202Z,39.80
2023-06-16T16:54:13.029Z,39.79
2023-06-16T16:56:15.619Z,39.81
2023-06-16T16:58:18.267Z,40.11
2023-06-16T17:00:21.503Z,40.08
2023-06-16T17:02:24.440Z,40.87
2023-06-16T17:04:26.954Z,41.04
2023-06-16T17:06:29.514Z,40.80
2023-06-16T17:08:32.090Z,41.29
2023-06-16T17:10:34.854Z,41.35
2023-06-16T17:12:38.172Z,41.45
2023-06-16T17:14:40.671Z,42.83
2023-06-16T17:16:45.168Z,43.82
2023-06-16T17:18:47.797Z,45.11
2023-06-16T17:20:50.391Z,46.06
2023-06-16T17:22:52.898Z,46.08
2023-06-16T17:24:56.166Z,46.25
2023-06-16T17:26:59.334Z,46.64
2023-06-16T17:29:02.182Z,47.53
2023-06-16T17:31:05.140Z,47.79
2023-06-16T17:33:07.816Z,46.66
2023-06-16T17:35:10.660Z,47.02
2023-06-16T17:37:13.332Z,46.75
2023-06-16T17:39:16.320Z,46.38
2023-06-16T17:41:19.567Z,45.99
2023-06-16T17:43:22.675Z,45.94
2023-06-16T17:45:26.020Z,46.99
2023-06-16T17:47:28.840Z,48.19
2023-06-16T17:49:31.921Z,48.49
2023-06-16T17:51:36.477Z,48.05
2023-06-16T17:53:39.030Z,48.73
2023-06-16T17:55:41.900Z,49.92
2023-06-16T17:57:44.903Z,50.16
2023-06-16T17:59:47.572Z,49.00
2023-06-16T18:01:50.602Z,48.60
2023-06-16T18:03:53.710Z,47.75
2023-06-16T18:05:56.881Z,47.49
2023-06-16T18:07:59.978Z,48.08
2023-06-16T18:10:03.136Z,48.15
2023-06-16T18:12:06.531Z,48.84
2023-06-16T18:14:09.939Z,48.12
2023-06-16T18:16:12.975Z,48.04
2023-06-16T18:18:15.668Z,48.06
2023-06-16T18:20:18.986Z,47.92
2023-06-16T18:22:21.801Z,47.72
2023-06-16T18:24:28.027Z,47.50
2023-06-16T18:26:31.103Z,47.03
2023-06-16T18:28:34.750Z,46.73
2023-06-16T18:30:37.685Z,47.43
2023-06-16T18:32:41.223Z,48.17
2023-06-16T18:34:44.150Z,48.54
2023-06-16T18:36:47.202Z,49.36
2023-06-16T18:39:08.488Z,50.06
2023-06-16T18:41:11.223Z,50.03
2023-06-16T18:43:14.817Z,50.66
2023-06-16T18:45:17.425Z,51.20
2023-06-16T18:47:20.061Z,51.74
2023-06-16T18:49:23.515Z,52.22
2023-06-16T18:51:28.992Z,52.49
2023-06-16T18:53:31.856Z,52.57
2023-06-16T18:55:34.468Z,52.85
2023-06-16T18:57:37.841Z,53.01
2023-06-16T18:59:41.279Z,53.60
2023-06-16T19:01:45.856Z,53.85
2023-06-16T19:03:49.235Z,54.23
2023-06-16T19:05:52.119Z,54.41
2023-06-16T19:07:55.050Z,54.45
2023-06-16T19:09:57.889Z,54.72
2023-06-16T19:12:01.075Z,54.75
2023-06-16T19:14:03.851Z,54.79
2023-06-16T19:16:07.344Z,55.15
2023-06-16T19:18:10.227Z,55.35
2023-06-16T19:20:14.324Z,55.09
2023-06-16T19:22:19.148Z,55.50
2023-06-16T19:24:21.857Z,55.93
2023-06-16T19:26:24.902Z,56.04
2023-06-16T19:28:27.419Z,56.27
2023-06-16T19:30:30.650Z,56.65
2023-06-16T19:32:34.152Z,57.32
2023-06-16T19:34:37.769Z,57.04
2023-06-16T19:36:41.186Z,57.71
2023-06-16T19:38:45.039Z,57.47
2023-06-16T19:40:48.337Z,57.89
2023-06-16T19:42:51.971Z,57.88
2023-06-16T19:44:58.275Z,58.46
2023-06-16T19:47:01.519Z,58.47
2023-06-16T19:49:04.284Z,58.78
2023-06-16T19:51:08.579Z,58.46
2023-06-16T19:53:11.432Z,58.55
2023-06-16T19:55:14.803Z,58.48
2023-06-16T19:57:18.784Z,58.82
2023-06-16T19:59:21.604Z,58.97
2023-06-16T20:01:24.361Z,59.27
2023-06-16T20:03:28.069Z,59.86
2023-06-16T20:05:31.206Z,59.30
2023-06-16T20:07:34.344Z,59.84
2023-06-16T20:09:37.844Z,59.88
2023-06-16T20:11:41.242Z,59.88
2023-06-16T20:13:47.449Z,59.97
2023-06-16T20:15:50.405Z,59.88
2023-06-16T20:17:53.331Z,59.94
2023-06-16T20:19:56.027Z,60.37
2023-06-16T20:22:02.643Z,60.43
2023-06-16T20:24:05.424Z,60.27
2023-06-16T20:26:08.431Z,60.61
2023-06-16T20:28:13.687Z,60.91
2023-06-16T20:30:17.354Z,60.60
2023-06-16T20:32:21.081Z,60.11
2023-06-16T20:34:24.040Z,60.81
2023-06-16T20:36:28.239Z,60.44
2023-06-16T20:38:31.004Z,60.18
2023-06-16T20:40:34.867Z,60.91
2023-06-16T20:42:38.837Z,61.19
2023-06-16T20:44:41.647Z,60.57
2023-06-16T20:46:44.901Z,60.86
2023-06-16T20:48:50.177Z,61.06
2023-06-16T20:50:54.127Z,61.57
2023-06-16T20:52:56.936Z,61.51
2023-06-16T20:55:00.516Z,61.59
2023-06-16T20:57:04.327Z,61.60
2023-06-16T20:59:07.100Z,61.78
2023-06-16T21:01:20.524Z,61.80
2023-06-16T21:03:26.610Z,62.23
2023-06-16T21:05:30.562Z,62.05
2023-06-16T21:07:34.050Z,62.85
2023-06-16T21:09:36.743Z,62.46
2023-06-16T21:11:40.501Z,62.88
2023-06-16T21:13:43.294Z,62.58
2023-06-16T21:15:46.362Z,63.08
2023-06-16T21:17:50.214Z,62.68
2023-06-16T21:19:52.987Z,62.92
2023-06-16T21:21:55.955Z,62.96
2023-06-16T21:24:03.630Z,62.85
2023-06-16T21:26:06.636Z,62.62
2023-06-16T21:28:10.320Z,62.69
2023-06-16T21:30:13.971Z,62.46
2023-06-16T21:32:17.037Z,62.59
2023-06-16T21:34:19.797Z,63.07
2023-06-16T21:36:22.939Z,63.01
2023-06-16T21:38:31.678Z,62.81
2023-06-16T21:40:34.651Z,63.40
2023-06-16T21:42:45.315Z,63.30
2023-06-16T21:44:48.469Z,63.43
2023-06-16T21:46:51.171Z,63.52
2023-06-16T21:48:55.014Z,64.00
2023-06-16T21:50:57.910Z,64.26
2023-06-16T21:53:01.021Z,64.06
2023-06-16T21:55:05.257Z,64.54
2023-06-16T21:57:08.639Z,65.05
2023-06-16T21:59:11.215Z,65.06
2023-06-16T22:01:13.651Z,65.31
2023-06-16T22:03:18.640Z,65.11
2023-06-16T22:05:22.343Z,65.09
2023-06-16T22:07:25.011Z,65.83
2023-06-16T22:09:27.777Z,65.15
2023-06-16T22:11:30.654Z,65.62
2023-06-16T22:13:36.256Z,65.44
2023-06-16T22:15:39.340Z,66.03
2023-06-16T22:17:42.753Z,65.75
2023-06-16T22:19:45.573Z,65.81
2023-06-16T22:21:48.755Z,66.30
2023-06-16T22:23:51.559Z,65.77
2023-06-16T22:25:55.381Z,65.81
2023-06-16T22:27:57.756Z,66.22
2023-06-16T22:30:01.525Z,66.32
2023-06-16T22:32:04.877Z,66.13
2023-06-16T22:34:08.390Z,66.22
2023-06-16T22:36:10.803Z,65.86
2023-06-16T22:38:14.162Z,65.84
2023-06-16T22:40:16.681Z,65.84
2023-06-16T22:42:22.715Z,66.16
2023-06-16T22:44:26.815Z,66.66
2023-06-16T22:46:29.886Z,65.74
2023-06-16T22:48:33.827Z,65.76
2023-06-16T22:50:37.469Z,66.46
2023-06-16T22:52:41.817Z,66.08
2023-06-16T22:54:44.320Z,66.51
2023-06-16T22:56:48.659Z,66.02
2023-06-16T22:58:52.428Z,66.48
2023-06-16T23:00:55.153Z,66.84
2023-06-16T23:02:57.787Z,66.36
2023-06-16T23:05:00.865Z,66.62
2023-06-16T23:07:04.330Z,66.69
2023-06-16T23:09:07.720Z,66.56
2023-06-16T23:11:10.870Z,66.97
2023-06-16T23:13:13.718Z,66.83
2023-06-16T23:15:16.676Z,67.36
2023-06-16T23:17:19.478Z,67.03
2023-06-16T23:19:22.798Z,67.16
2023-06-16T23:21:25.782Z,67.73
2023-06-16T23:23:30.492Z,67.70
2023-06-16T23:25:37.033Z,67.94
2023-06-16T23:27:39.514Z,67.97
2023-06-16T23:29:42.262Z,67.99
2023-06-16T23:31:48.003Z,67.80
2023-06-16T23:33:51.059Z,68.02
2023-06-16T23:35:56.721Z,68.30
2023-06-16T23:38:01.397Z,68.65
2023-06-16T23:40:07.396Z,68.27
2023-06-16T23:42:11.004Z,68.64
2023-06-16T23:44:13.428Z,68.92
2023-06-16T23:46:16.251Z,68.64
2023-06-16T23:48:18.726Z,68.69
2023-06-16T23:50:21.726Z,69.02
2023-06-16T23:52:24.954Z,68.91
2023-06-16T23:54:27.796Z,68.54
2023-06-16T23:56:30.637Z,68.92
2023-06-16T23:58:33.668Z,68.78
